Obelix — 7JAX — position and weather

sailwx.info

Track history (hours):
 
Tides and Currents Weather Stations Pressure Air Temp Water Temp Dewpoint Dewpoint Depression Visibility Wind Speed Wind Dir Waves Ship Positions

Obelix

Last reported at 2015-Mar-24 14:15 UTC. Time now 2015-Mar-27 02:03 UTC.
Position N 34°50' E 139°12'.

Length 74 m; draft 4.5 m.

Type: Ship (hazmat cat D). MMSI: 432528000.

Date/timePositionNaut miles runAvg speedWind from/ knotsBaromVisibWave heightAir tempDewpointWater temp
2015-Mar-24 14:15N 34°50' E 139°12'1911.0
2015-Mar-24 12:31N 34°60' E 139°32'1111.6
2015-Mar-24 11:34N 35°06' E 139°43'1111.1
2015-Mar-24 10:34N 35°17' E 139°45'10 9.9
2015-Mar-24 09:33N 35°27' E 139°47'7 6.9
2015-Mar-24 08:34N 35°29' E 139°56'2 2.1
2015-Mar-24 07:33N 35°29' E 139°58'2 2.4
2015-Mar-24 06:34N 35°29' E 140°01'0 0.0
2015-Mar-24 05:33N 35°29' E 140°01'0 0.0
2015-Mar-24 04:33N 35°29' E 140°01'0 0.0
2015-Mar-24 03:33N 35°29' E 140°01'0 0.0
2015-Mar-24 02:33N 35°29' E 140°01'0 0.0
2015-Mar-24 01:33N 35°29' E 140°01'0 0.0
2015-Mar-24 00:33N 35°29' E 140°01'8 8.1
2015-Mar-23 23:34N 35°28' E 139°51'1111.1
2015-Mar-23 22:34N 35°18' E 139°45'1111.3
2015-Mar-23 21:33N 35°07' E 139°45'1212.1
2015-Mar-23 20:34N 34°58' E 139°35'  
2015-Mar-17 15:06N 34°08' E 134°44'246 4.8
2015-Mar-15 11:32N 34°51' E 139°37'  
Track history (hours):
 
Tides and Currents Weather Stations Pressure Air Temp Water Temp Dewpoint Dewpoint Depression Visibility Wind Speed Wind Dir Waves Ship Positions

Obelix

Last reported at 2015-Mar-24 14:15 UTC. Time now 2015-Mar-27 02:03 UTC.
Position N 34°50' E 139°12'.

Length 74 m; draft 4.5 m.

Type: Ship (hazmat cat D). MMSI: 432528000.

Date/timePositionNaut miles runAvg speedWind from/ knotsBaromVisibWave heightAir tempDewpointWater temp
2015-Mar-24 14:15N 34°50' E 139°12'1911.0
2015-Mar-24 12:31N 34°60' E 139°32'1111.6
2015-Mar-24 11:34N 35°06' E 139°43'1111.1
2015-Mar-24 10:34N 35°17' E 139°45'10 9.9
2015-Mar-24 09:33N 35°27' E 139°47'7 6.9
2015-Mar-24 08:34N 35°29' E 139°56'2 2.1
2015-Mar-24 07:33N 35°29' E 139°58'2 2.4
2015-Mar-24 06:34N 35°29' E 140°01'0 0.0
2015-Mar-24 05:33N 35°29' E 140°01'0 0.0
2015-Mar-24 04:33N 35°29' E 140°01'0 0.0
2015-Mar-24 03:33N 35°29' E 140°01'0 0.0
2015-Mar-24 02:33N 35°29' E 140°01'0 0.0
2015-Mar-24 01:33N 35°29' E 140°01'0 0.0
2015-Mar-24 00:33N 35°29' E 140°01'8 8.1
2015-Mar-23 23:34N 35°28' E 139°51'1111.1
2015-Mar-23 22:34N 35°18' E 139°45'1111.3
2015-Mar-23 21:33N 35°07' E 139°45'1212.1
2015-Mar-23 20:34N 34°58' E 139°35'  
2015-Mar-17 15:06N 34°08' E 134°44'246 4.8
2015-Mar-15 11:32N 34°51' E 139°37'  

Dump ship's entire track history